createdAt,value
2022-09-24T00:01:30.092Z,10.33
2022-09-24T00:04:02.465Z,10.36
2022-09-24T00:06:31.192Z,10.45
2022-09-24T00:08:58.294Z,10.06
2022-09-24T00:11:26.820Z,10.28
2022-09-24T00:13:54.833Z,10.41
2022-09-24T00:16:23.985Z,10.37
2022-09-24T00:18:50.828Z,10.35
2022-09-24T00:21:20.419Z,10.27
2022-09-24T00:23:52.083Z,10.13
2022-09-24T00:26:38.639Z,10.22
2022-09-24T00:29:06.352Z,10.15
2022-09-24T00:31:33.247Z,10.02
2022-09-24T00:34:01.189Z,10.27
2022-09-24T00:36:28.409Z,10.18
2022-09-24T00:38:58.050Z,10.30
2022-09-24T00:41:30.724Z,10.12
2022-09-24T00:43:58.081Z,10.06
2022-09-24T00:46:43.078Z,10.16
2022-09-24T00:49:16.563Z,10.18
2022-09-24T00:51:47.121Z,10.27
2022-09-24T00:54:19.749Z,10.24
2022-09-24T00:56:49.198Z,10.05
2022-09-24T00:59:18.531Z,10.34
2022-09-24T01:01:49.635Z,10.22
2022-09-24T01:04:21.357Z,9.95
2022-09-24T01:06:52.349Z,9.85
2022-09-24T01:09:21.717Z,9.60
2022-09-24T01:12:00.667Z,9.61
2022-09-24T01:14:42.586Z,9.79
2022-09-24T01:17:21.535Z,9.68
2022-09-24T01:20:09.922Z,9.62
2022-09-24T01:22:57.607Z,9.57
2022-09-24T01:25:43.943Z,9.63
2022-09-24T01:28:13.667Z,9.70
2022-09-24T01:30:42.710Z,9.83
2022-09-24T01:33:15.167Z,9.47
2022-09-24T01:35:44.857Z,9.22
2022-09-24T01:38:22.695Z,9.61
2022-09-24T01:40:52.081Z,9.61
2022-09-24T01:43:22.985Z,9.45
2022-09-24T01:45:49.993Z,9.41
2022-09-24T01:48:21.305Z,9.31
2022-09-24T01:51:03.387Z,9.58
2022-09-24T01:53:35.949Z,9.63
2022-09-24T01:56:08.350Z,9.30
2022-09-24T01:58:50.181Z,9.52
2022-09-24T02:01:27.873Z,9.43
2022-09-24T02:04:06.432Z,9.33
2022-09-24T02:06:44.407Z,9.47
2022-09-24T02:09:40.204Z,9.50
2022-09-24T02:12:23.061Z,9.62
2022-09-24T02:15:01.399Z,9.30
2022-09-24T02:17:33.588Z,9.45
2022-09-24T02:20:02.860Z,9.40
2022-09-24T02:22:31.284Z,9.15
2022-09-24T02:25:00.127Z,9.18
2022-09-24T02:27:30.636Z,9.27
2022-09-24T02:29:59.297Z,9.29
2022-09-24T02:32:30.014Z,9.29
2022-09-24T02:35:02.099Z,9.05
2022-09-24T02:37:29.870Z,9.29
2022-09-24T02:39:56.614Z,9.24
2022-09-24T02:42:23.578Z,8.89
2022-09-24T02:44:50.407Z,8.85
2022-09-24T02:47:17.108Z,9.13
2022-09-24T02:49:43.774Z,9.17
2022-09-24T02:52:10.569Z,9.05
2022-09-24T02:54:38.062Z,9.19
2022-09-24T02:57:04.892Z,9.12
2022-09-24T02:59:31.766Z,9.00
2022-09-24T03:01:58.600Z,8.97
2022-09-24T03:04:25.537Z,8.94
2022-09-24T03:06:52.463Z,8.87
2022-09-24T03:09:19.181Z,9.08
2022-09-24T03:11:46.617Z,9.09
2022-09-24T03:14:13.659Z,9.01
2022-09-24T03:16:40.515Z,9.12
2022-09-24T03:19:07.877Z,9.26
2022-09-24T03:21:34.672Z,9.17
2022-09-24T03:24:01.642Z,9.25
2022-09-24T03:26:28.496Z,8.59
2022-09-24T03:28:55.214Z,8.93
2022-09-24T03:31:24.408Z,8.78
2022-09-24T03:33:52.003Z,8.96
2022-09-24T03:36:24.525Z,9.04
2022-09-24T03:38:56.532Z,9.06
2022-09-24T03:41:27.804Z,8.91
2022-09-24T03:43:55.413Z,8.99
2022-09-24T03:46:24.478Z,9.10
2022-09-24T03:48:51.213Z,9.18
2022-09-24T03:51:19.711Z,9.04
2022-09-24T03:53:46.998Z,9.01
2022-09-24T03:56:13.825Z,9.04
2022-09-24T03:58:42.054Z,8.83
2022-09-24T04:01:10.810Z,9.03
2022-09-24T04:03:37.869Z,9.05
2022-09-24T04:06:05.546Z,8.79
2022-09-24T04:08:33.093Z,8.99
2022-09-24T04:11:00.134Z,8.91
2022-09-24T04:13:26.909Z,8.70
2022-09-24T04:15:55.183Z,8.87
2022-09-24T04:18:22.805Z,8.72
2022-09-24T04:20:49.783Z,8.41
2022-09-24T04:23:16.717Z,8.51
2022-09-24T04:25:44.211Z,8.75
2022-09-24T04:28:12.133Z,8.76
2022-09-24T04:30:39.430Z,8.47
2022-09-24T04:33:07.510Z,8.79
2022-09-24T04:35:36.303Z,8.84
2022-09-24T04:38:04.914Z,8.60
2022-09-24T04:40:32.455Z,8.50
2022-09-24T04:42:59.704Z,8.49
2022-09-24T04:45:26.995Z,8.51
2022-09-24T04:47:57.618Z,8.49
2022-09-24T04:50:27.447Z,8.36
2022-09-24T04:52:55.110Z,8.44
2022-09-24T04:55:22.707Z,8.39
2022-09-24T04:57:51.286Z,8.35
2022-09-24T05:00:21.117Z,8.68
2022-09-24T05:02:55.257Z,8.98
2022-09-24T05:05:22.092Z,8.89
2022-09-24T05:07:49.629Z,9.41
2022-09-24T05:10:16.425Z,9.99
2022-09-24T05:12:43.157Z,10.72
2022-09-24T05:15:10.426Z,11.28
2022-09-24T05:17:40.731Z,12.16
2022-09-24T05:20:11.449Z,13.15
2022-09-24T05:22:46.302Z,14.06
2022-09-24T05:25:15.168Z,15.18
2022-09-24T05:27:50.261Z,16.07
2022-09-24T05:30:18.945Z,16.88
2022-09-24T05:32:47.360Z,17.77
2022-09-24T05:35:14.059Z,18.54
2022-09-24T05:37:41.269Z,18.73
2022-09-24T05:40:27.149Z,18.66
2022-09-24T05:43:00.994Z,18.86
2022-09-24T05:45:31.721Z,18.45
2022-09-24T05:48:00.241Z,18.19
2022-09-24T05:50:27.635Z,17.97
2022-09-24T05:52:54.554Z,17.11
2022-09-24T05:55:21.252Z,16.78
2022-09-24T05:57:49.130Z,16.85
2022-09-24T06:00:16.018Z,17.14
2022-09-24T06:02:42.782Z,16.86
2022-09-24T06:05:10.308Z,17.02
2022-09-24T06:07:37.141Z,16.60
2022-09-24T06:10:05.492Z,16.96
2022-09-24T06:12:35.088Z,16.98
2022-09-24T06:15:02.946Z,16.76
2022-09-24T06:17:30.006Z,16.60
2022-09-24T06:19:58.134Z,16.70
2022-09-24T06:22:28.336Z,16.11
2022-09-24T06:24:55.724Z,16.25
2022-09-24T06:27:22.454Z,15.72
2022-09-24T06:29:49.270Z,15.84
2022-09-24T06:32:16.134Z,15.65
2022-09-24T06:34:43.092Z,15.27
2022-09-24T06:37:09.972Z,14.70
2022-09-24T06:39:36.660Z,14.80
2022-09-24T06:42:03.387Z,14.94
2022-09-24T06:44:31.813Z,14.87
2022-09-24T06:46:58.656Z,14.77
2022-09-24T06:49:29.012Z,13.92
2022-09-24T06:51:58.984Z,13.78
2022-09-24T06:54:25.887Z,14.50
2022-09-24T06:56:52.845Z,14.52
2022-09-24T06:59:19.775Z,14.21
2022-09-24T07:01:46.464Z,13.89
2022-09-24T07:04:13.388Z,13.59
2022-09-24T07:06:58.867Z,14.01
2022-09-24T07:09:25.563Z,14.29
2022-09-24T07:11:53.162Z,14.56
2022-09-24T07:14:20.212Z,14.15
2022-09-24T07:16:47.837Z,14.42
2022-09-24T07:19:14.520Z,14.81
2022-09-24T07:21:41.213Z,14.84
2022-09-24T07:24:07.975Z,15.12
2022-09-24T07:26:34.748Z,15.19
2022-09-24T07:29:02.288Z,15.13
2022-09-24T07:31:30.073Z,14.81
2022-09-24T07:33:56.870Z,15.37
2022-09-24T07:36:23.724Z,15.75
2022-09-24T07:38:50.467Z,15.64
2022-09-24T07:41:18.324Z,16.25
2022-09-24T07:43:45.056Z,16.50
2022-09-24T07:46:11.779Z,16.64
2022-09-24T07:48:38.510Z,16.56
2022-09-24T07:51:06.521Z,16.77
2022-09-24T07:53:33.740Z,16.34
2022-09-24T07:56:00.777Z,16.83
2022-09-24T07:58:27.600Z,16.33
2022-09-24T08:00:57.942Z,16.64
2022-09-24T08:03:24.745Z,16.76
2022-09-24T08:05:52.255Z,16.46
2022-09-24T08:08:20.978Z,15.79
2022-09-24T08:10:47.695Z,16.22
2022-09-24T08:13:14.888Z,16.01
2022-09-24T08:15:41.973Z,16.95
2022-09-24T08:18:08.765Z,17.90
2022-09-24T08:20:38.042Z,19.20
2022-09-24T08:23:07.774Z,20.17
2022-09-24T08:25:34.340Z,20.55
2022-09-24T08:28:08.849Z,20.70
2022-09-24T08:30:36.173Z,20.50
2022-09-24T08:33:06.900Z,20.76
2022-09-24T08:35:37.142Z,21.03
2022-09-24T08:38:04.008Z,21.46
2022-09-24T08:40:36.487Z,21.44
2022-09-24T08:43:21.770Z,20.59
2022-09-24T08:46:14.261Z,20.81
2022-09-24T08:48:46.454Z,21.36
2022-09-24T08:51:18.285Z,20.81
2022-09-24T08:53:57.771Z,21.27
2022-09-24T08:56:35.380Z,21.95
2022-09-24T08:59:02.339Z,22.16
2022-09-24T09:01:35.213Z,21.93
2022-09-24T09:04:26.101Z,20.02
2022-09-24T09:07:02.250Z,20.80
2022-09-24T09:09:46.420Z,20.68
2022-09-24T09:12:23.604Z,21.64
2022-09-24T09:15:06.134Z,22.44
2022-09-24T09:17:42.493Z,23.01
2022-09-24T09:20:40.786Z,23.29
2022-09-24T09:23:16.987Z,23.97
2022-09-24T09:25:57.961Z,23.83
2022-09-24T09:28:26.886Z,24.25
2022-09-24T09:30:56.931Z,24.54
2022-09-24T09:34:09.364Z,25.15
2022-09-24T09:37:03.253Z,25.20
2022-09-24T09:39:55.017Z,25.56
2022-09-24T09:42:42.945Z,25.27
2022-09-24T09:45:25.481Z,25.41
2022-09-24T09:47:57.639Z,25.28
2022-09-24T09:50:42.941Z,25.55
2022-09-24T09:53:31.621Z,25.30
2022-09-24T09:56:04.812Z,26.07
2022-09-24T09:58:33.952Z,24.99
2022-09-24T10:01:08.016Z,24.76
2022-09-24T10:03:52.283Z,25.45
2022-09-24T10:06:28.033Z,25.10
2022-09-24T10:09:05.954Z,25.10
2022-09-24T10:11:32.970Z,25.15
2022-09-24T10:14:04.707Z,23.75
2022-09-24T10:16:38.181Z,24.75
2022-09-24T10:19:16.447Z,25.53
2022-09-24T10:21:43.347Z,24.51
2022-09-24T10:24:23.724Z,24.12
2022-09-24T10:26:50.915Z,25.04
2022-09-24T10:29:40.492Z,24.14
2022-09-24T10:32:16.152Z,24.09
2022-09-24T10:34:43.057Z,24.36
2022-09-24T10:37:19.117Z,24.16
2022-09-24T10:39:45.859Z,25.19
2022-09-24T10:42:27.307Z,25.86
2022-09-24T10:44:55.748Z,26.18
2022-09-24T10:47:53.224Z,25.01
2022-09-24T10:50:20.090Z,24.97
2022-09-24T10:53:39.650Z,25.02
2022-09-24T10:56:22.966Z,25.65
2022-09-24T10:59:14.018Z,25.89
2022-09-24T11:01:52.331Z,25.65
2022-09-24T11:04:41.041Z,26.15
2022-09-24T11:07:42.030Z,26.30
2022-09-24T11:10:30.945Z,25.90
2022-09-24T11:13:07.476Z,25.80
2022-09-24T11:16:04.633Z,26.32
2022-09-24T11:18:32.181Z,25.90
2022-09-24T11:21:31.501Z,25.98
2022-09-24T11:24:19.906Z,25.83
2022-09-24T11:27:08.200Z,25.92
2022-09-24T11:29:48.682Z,25.94
2022-09-24T11:32:24.130Z,25.58
2022-09-24T11:34:51.659Z,25.42
2022-09-24T11:37:46.282Z,25.20
2022-09-24T11:40:31.652Z,25.03
2022-09-24T11:43:26.603Z,25.57
2022-09-24T11:46:33.379Z,25.73
2022-09-24T11:49:57.201Z,26.13
2022-09-24T11:52:43.795Z,26.23
2022-09-24T11:55:14.789Z,26.79
2022-09-24T11:58:04.532Z,26.60
2022-09-24T12:00:40.703Z,27.03
2022-09-24T12:03:25.198Z,26.98
2022-09-24T12:06:21.994Z,27.28
2022-09-24T12:08:56.179Z,27.36
2022-09-24T12:11:34.193Z,27.14
2022-09-24T12:14:13.300Z,27.24
2022-09-24T12:16:44.492Z,27.38
2022-09-24T12:19:14.215Z,27.37
2022-09-24T12:21:43.602Z,27.04
2022-09-24T12:24:19.359Z,26.88
2022-09-24T12:26:47.952Z,26.67
2022-09-24T12:29:59.619Z,26.61
2022-09-24T12:32:54.976Z,26.75
2022-09-24T12:35:58.254Z,26.55
2022-09-24T12:38:42.723Z,26.61
2022-09-24T12:41:21.348Z,26.63
2022-09-24T12:43:54.572Z,26.68
2022-09-24T12:46:47.348Z,26.37
2022-09-24T12:49:35.963Z,26.82
2022-09-24T12:52:32.515Z,26.86
2022-09-24T12:55:02.422Z,26.45
2022-09-24T12:57:49.375Z,26.62
2022-09-24T13:00:36.519Z,27.13
2022-09-24T13:03:05.793Z,27.38
2022-09-24T13:05:46.440Z,27.11
2022-09-24T13:08:22.998Z,27.44
2022-09-24T13:11:00.983Z,27.60
2022-09-24T13:13:31.941Z,27.38
2022-09-24T13:16:06.428Z,27.33
2022-09-24T13:18:36.991Z,27.34
2022-09-24T13:21:09.097Z,27.53
2022-09-24T13:23:35.708Z,27.63
2022-09-24T13:26:06.421Z,27.73
2022-09-24T13:28:48.661Z,27.89
2022-09-24T13:31:35.405Z,27.59
2022-09-24T13:34:13.024Z,27.70
2022-09-24T13:36:46.372Z,27.80
2022-09-24T13:39:42.583Z,26.60
2022-09-24T13:42:25.388Z,27.28
2022-09-24T13:44:58.433Z,27.35
2022-09-24T13:47:28.781Z,27.58
2022-09-24T13:50:25.794Z,27.48
2022-09-24T13:53:18.696Z,27.74
2022-09-24T13:55:46.923Z,27.34
2022-09-24T13:58:29.685Z,26.61
2022-09-24T14:00:59.975Z,27.21
2022-09-24T14:03:37.412Z,26.89
2022-09-24T14:06:12.675Z,26.80
2022-09-24T14:08:47.198Z,26.86
2022-09-24T14:11:16.024Z,26.71
2022-09-24T14:13:46.176Z,26.59
2022-09-24T14:16:21.230Z,26.80
2022-09-24T14:18:48.939Z,26.83
2022-09-24T14:21:27.926Z,27.02
2022-09-24T14:23:54.606Z,26.91
2022-09-24T14:26:30.135Z,27.01
2022-09-24T14:29:00.165Z,26.31
2022-09-24T14:31:28.110Z,26.11
2022-09-24T14:33:55.254Z,26.63
2022-09-24T14:36:28.248Z,26.70
2022-09-24T14:39:04.457Z,26.91
2022-09-24T14:41:36.491Z,26.90
2022-09-24T14:44:08.125Z,26.56
2022-09-24T14:46:46.017Z,25.99
2022-09-24T14:49:42.214Z,26.13
2022-09-24T14:52:25.268Z,25.66
2022-09-24T14:55:12.512Z,25.88
2022-09-24T14:57:43.353Z,25.58
2022-09-24T15:00:19.232Z,25.05
2022-09-24T15:02:51.173Z,25.40
2022-09-24T15:05:23.271Z,24.44
2022-09-24T15:07:50.129Z,24.33
2022-09-24T15:10:23.037Z,24.47
2022-09-24T15:12:50.862Z,24.21
2022-09-24T15:15:17.506Z,24.36
2022-09-24T15:17:47.320Z,23.99
2022-09-24T15:20:14.960Z,23.96
2022-09-24T15:22:41.731Z,23.37
2022-09-24T15:25:08.986Z,24.05
2022-09-24T15:27:40.512Z,23.93
2022-09-24T15:30:11.356Z,23.84
2022-09-24T15:32:38.897Z,23.35
2022-09-24T15:35:09.747Z,23.43
2022-09-24T15:37:39.946Z,23.57
2022-09-24T15:40:14.286Z,23.61
2022-09-24T15:42:41.077Z,23.42
2022-09-24T15:45:21.726Z,23.31
2022-09-24T15:47:50.209Z,23.59
2022-09-24T15:50:18.073Z,22.55
2022-09-24T15:52:50.551Z,22.97
2022-09-24T15:55:20.151Z,23.19
2022-09-24T15:57:47.147Z,23.07
2022-09-24T16:00:18.947Z,23.11
2022-09-24T16:02:52.364Z,23.22
2022-09-24T16:05:19.779Z,22.82
2022-09-24T16:07:46.969Z,23.09
2022-09-24T16:10:15.754Z,22.94
2022-09-24T16:12:43.289Z,23.10
2022-09-24T16:15:14.858Z,23.12
2022-09-24T16:17:42.302Z,23.17
2022-09-24T16:20:12.317Z,22.99
2022-09-24T16:22:39.167Z,23.19
2022-09-24T16:25:07.239Z,23.06
2022-09-24T16:27:35.444Z,22.83
2022-09-24T16:30:02.854Z,22.92
2022-09-24T16:32:29.605Z,22.77
2022-09-24T16:34:57.094Z,22.51
2022-09-24T16:37:25.318Z,22.17
2022-09-24T16:39:55.465Z,22.20
2022-09-24T16:42:22.305Z,21.69
2022-09-24T16:44:49.009Z,21.74
2022-09-24T16:47:17.836Z,21.72
2022-09-24T16:49:44.683Z,21.92
2022-09-24T16:52:11.643Z,21.66
2022-09-24T16:54:38.416Z,21.62
2022-09-24T16:57:06.402Z,21.49
2022-09-24T16:59:33.456Z,21.40
2022-09-24T17:02:00.378Z,21.51
2022-09-24T17:04:27.793Z,21.37
2022-09-24T17:06:58.536Z,21.41
2022-09-24T17:09:44.034Z,21.43
2022-09-24T17:12:11.170Z,21.19
2022-09-24T17:14:38.641Z,21.40
2022-09-24T17:17:05.953Z,21.64
2022-09-24T17:19:32.785Z,21.18
2022-09-24T17:22:00.889Z,20.82
2022-09-24T17:24:27.865Z,21.00
2022-09-24T17:26:55.243Z,21.04
2022-09-24T17:29:27.571Z,20.68
2022-09-24T17:31:57.339Z,20.83
2022-09-24T17:34:24.281Z,20.50
2022-09-24T17:36:51.115Z,20.76
2022-09-24T17:39:18.770Z,20.82
2022-09-24T17:41:45.769Z,20.67
2022-09-24T17:44:13.228Z,20.86
2022-09-24T17:46:40.581Z,20.77
2022-09-24T17:49:07.561Z,20.86
2022-09-24T17:51:36.616Z,20.71
2022-09-24T17:54:08.511Z,20.77
2022-09-24T17:56:39.091Z,20.77
2022-09-24T17:59:08.978Z,20.56
2022-09-24T18:01:38.332Z,20.44
2022-09-24T18:04:07.188Z,20.42
2022-09-24T18:06:37.347Z,20.47
2022-09-24T18:09:05.549Z,20.51
2022-09-24T18:11:38.515Z,20.64
2022-09-24T18:14:05.618Z,20.49
2022-09-24T18:16:33.711Z,20.32
2022-09-24T18:19:02.295Z,20.45
2022-09-24T18:21:30.164Z,20.50
2022-09-24T18:23:58.997Z,20.32
2022-09-24T18:26:32.924Z,20.31
2022-09-24T18:29:02.513Z,19.92
2022-09-24T18:31:29.865Z,19.94
2022-09-24T18:34:05.284Z,20.38
2022-09-24T18:36:34.935Z,20.33
2022-09-24T18:39:02.429Z,20.28
2022-09-24T18:41:30.968Z,19.99
2022-09-24T18:44:01.636Z,19.85
2022-09-24T18:46:30.925Z,18.79
2022-09-24T18:49:01.716Z,19.41
2022-09-24T18:51:32.026Z,19.08
2022-09-24T18:54:03.489Z,19.20
2022-09-24T18:56:31.506Z,19.31
2022-09-24T18:59:02.084Z,19.39
2022-09-24T19:01:32.150Z,19.92
2022-09-24T19:04:00.670Z,19.76
2022-09-24T19:06:28.441Z,19.84
2022-09-24T19:08:55.518Z,19.59
2022-09-24T19:11:22.994Z,19.73
2022-09-24T19:13:51.992Z,19.80
2022-09-24T19:16:20.321Z,19.94
2022-09-24T19:18:47.569Z,19.71
2022-09-24T19:21:15.751Z,19.77
2022-09-24T19:23:46.529Z,19.89
2022-09-24T19:26:16.371Z,19.90
2022-09-24T19:28:44.150Z,19.92
2022-09-24T19:31:22.187Z,19.26
2022-09-24T19:33:50.463Z,19.81
2022-09-24T19:36:17.687Z,19.78
2022-09-24T19:38:44.978Z,19.57
2022-09-24T19:41:25.450Z,19.10
2022-09-24T19:43:53.947Z,19.14
2022-09-24T19:46:24.405Z,19.12
2022-09-24T19:48:52.327Z,18.38
2022-09-24T19:51:23.611Z,18.48
2022-09-24T19:53:53.563Z,18.46
2022-09-24T19:56:22.732Z,17.99
2022-09-24T19:58:52.848Z,18.61
2022-09-24T20:01:21.655Z,18.48
2022-09-24T20:03:49.255Z,18.41
2022-09-24T20:06:19.008Z,18.11
2022-09-24T20:08:49.275Z,18.35
2022-09-24T20:11:19.500Z,18.63
2022-09-24T20:13:47.171Z,18.66
2022-09-24T20:16:16.550Z,18.65
2022-09-24T20:18:43.786Z,17.97
2022-09-24T20:21:12.849Z,17.70
2022-09-24T20:23:40.958Z,18.07
2022-09-24T20:26:26.276Z,17.56
2022-09-24T20:28:53.188Z,17.73
2022-09-24T20:31:21.169Z,17.27
2022-09-24T20:33:49.031Z,17.09
2022-09-24T20:36:20.756Z,17.32
2022-09-24T20:38:50.091Z,17.60
2022-09-24T20:41:25.012Z,17.77
2022-09-24T20:43:55.309Z,17.99
2022-09-24T20:46:24.841Z,17.90
2022-09-24T20:48:52.646Z,17.79
2022-09-24T20:51:21.387Z,17.95
2022-09-24T20:53:49.607Z,17.95
2022-09-24T20:56:18.277Z,18.02
2022-09-24T20:58:45.516Z,18.12
2022-09-24T21:01:12.707Z,18.26
2022-09-24T21:03:44.851Z,18.19
2022-09-24T21:06:13.204Z,18.30
2022-09-24T21:08:42.753Z,18.21
2022-09-24T21:11:16.268Z,18.37
2022-09-24T21:13:45.830Z,18.21
2022-09-24T21:16:12.984Z,18.44
2022-09-24T21:18:42.815Z,18.33
2022-09-24T21:21:12.467Z,18.10
2022-09-24T21:23:40.152Z,18.21
2022-09-24T21:26:10.910Z,17.71
2022-09-24T21:28:37.890Z,17.80
2022-09-24T21:31:05.840Z,17.84
2022-09-24T21:33:33.805Z,18.05
2022-09-24T21:36:05.799Z,18.17
2022-09-24T21:38:32.874Z,17.97
2022-09-24T21:41:01.456Z,17.74
2022-09-24T21:43:33.824Z,17.64
2022-09-24T21:46:06.753Z,17.77
2022-09-24T21:48:34.429Z,17.41
2022-09-24T21:51:06.323Z,17.40
2022-09-24T21:53:34.442Z,17.42
2022-09-24T21:56:02.641Z,17.42
2022-09-24T21:58:30.061Z,17.54
2022-09-24T22:01:04.276Z,17.24
2022-09-24T22:03:32.194Z,17.58
2022-09-24T22:06:03.451Z,17.44
2022-09-24T22:08:32.039Z,17.43
2022-09-24T22:11:05.156Z,17.09
2022-09-24T22:13:32.440Z,17.38
2022-09-24T22:16:00.338Z,16.43
2022-09-24T22:18:28.176Z,17.01
2022-09-24T22:20:56.410Z,16.69
2022-09-24T22:23:23.809Z,16.43
2022-09-24T22:25:55.944Z,16.86
2022-09-24T22:28:24.649Z,15.84
2022-09-24T22:30:56.300Z,16.58
2022-09-24T22:33:42.674Z,16.95
2022-09-24T22:36:09.688Z,17.03
2022-09-24T22:38:37.233Z,16.35
2022-09-24T22:41:05.914Z,16.91
2022-09-24T22:43:33.210Z,15.93
2022-09-24T22:46:01.138Z,15.76
2022-09-24T22:48:28.199Z,16.39
2022-09-24T22:50:55.022Z,15.68
2022-09-24T22:53:22.405Z,15.49
2022-09-24T22:55:52.670Z,15.88
2022-09-24T22:58:19.473Z,15.74
2022-09-24T23:00:46.345Z,16.22
2022-09-24T23:03:13.079Z,15.52
2022-09-24T23:05:39.795Z,15.85
2022-09-24T23:08:06.580Z,16.41
2022-09-24T23:10:33.827Z,16.32
2022-09-24T23:13:00.573Z,16.91
2022-09-24T23:15:27.341Z,16.54
2022-09-24T23:17:55.085Z,16.47
2022-09-24T23:20:22.790Z,16.51
2022-09-24T23:22:49.803Z,16.25
2022-09-24T23:25:16.704Z,16.72
2022-09-24T23:27:43.420Z,16.32
2022-09-24T23:30:10.738Z,15.82
2022-09-24T23:32:37.438Z,16.44
2022-09-24T23:35:04.431Z,16.50
2022-09-24T23:37:31.317Z,16.36
2022-09-24T23:39:58.320Z,16.25
2022-09-24T23:42:25.044Z,16.69
2022-09-24T23:44:51.790Z,16.80
2022-09-24T23:47:18.710Z,16.52
2022-09-24T23:49:45.371Z,16.12
2022-09-24T23:52:12.164Z,16.48
2022-09-24T23:54:40.336Z,16.70
2022-09-24T23:57:07.616Z,16.49
2022-09-24T23:59:34.722Z,16.22
